deformed-offering

Current conditions - KSJC (San Jose International)


Coded METAR: 2017/11/24 23:53 KSJC 242353Z 31007KT 10SM SCT045 BKN085 BKN120 22/13 A3000 RMK AO2 SLP159 T02170133 10233 20161 56008

Weather Report

Report issued: Fri 24th Nov at 15:53 PST

Wind: gentle breeze from the Northwest (310 degrees) at 7 knots (8 mph, 13 kph, Force 3)
Visibility: 10 statute miles
Cloud: scattered at 4500 feet
Cloud: broken at 8500 feet
Cloud: broken at 12000 feet
Temperature: 72F / 22C
Dewpoint: 55F / 13C
Humidity: 57%
Pressure: 30.00 inches of mercury

Current conditions - KNUQ (Moffett NAS)


Coded METAR: 2017/11/24 23:56 KNUQ 242356Z 34005KT 10SM CLR 19/14 A3001 RMK AO2 SLP164 T01890139 10211 20156 56010

Weather Report

Report issued: Fri 24th Nov at 15:56 PST

Wind: light breeze from North-Northwest (340 degrees) at 5 knots (6 mph, 9 kph, Force 2)
Visibility: 10 statute miles
Cloud: Sky clear
Temperature: 66F / 19C
Dewpoint: 57F / 14C
Humidity: 73%
Pressure: 30.01 inches of mercury

Current conditions - KRHV (Reid-Hillview Airport - San Jose)


Coded METAR: 2017/11/24 23:47 KRHV 242347Z 34006KT 10SM BKN120 22/14 A2999

Weather Report

Report issued: Fri 24th Nov at 15:47 PST

Wind: light breeze from North-Northwest (340 degrees) at 6 knots (7 mph, 11 kph, Force 2)
Visibility: 10 statute miles
Cloud: broken at 12000 feet
Temperature: 72F / 22C
Dewpoint: 57F / 14C
Humidity: 60%
Pressure: 29.99 inches of mercury

Current conditions - KPAO (Palo Alto Airport)


Coded METAR: 2017/11/24 23:47 KPAO 242347Z 32009KT 10SM BKN100 19/-- A3000

Weather Report

Report issued: Fri 24th Nov at 15:47 PST

Wind: gentle breeze from the Northwest (320 degrees) at 9 knots (10 mph, 17 kph, Force 3)
Visibility: 10 statute miles
Cloud: broken at 10000 feet
Temperature: 66F / 19C
Dewpoint: 32F / --C
Humidity: 28%
Pressure: 30.00 inches of mercury

 

deformed-offering